createdAt,value
2023-01-06T00:02:19.610Z,63.80
2023-01-06T00:07:13.122Z,61.13
2023-01-06T00:12:11.048Z,50.03
2023-01-06T00:17:05.173Z,75.82
2023-01-06T00:21:59.167Z,58.08
2023-01-06T00:31:46.339Z,64.00
2023-01-06T00:36:39.448Z,54.70
2023-01-06T00:41:51.370Z,56.72
2023-01-06T00:46:45.231Z,56.38
2023-01-06T00:51:40.181Z,54.45
2023-01-06T00:56:35.770Z,54.45
2023-01-06T01:01:29.059Z,54.42
2023-01-06T01:06:23.148Z,55.78
2023-01-06T01:11:35.975Z,61.95
2023-01-06T01:16:29.170Z,50.72
2023-01-06T01:21:23.811Z,51.22
2023-01-06T01:26:17.938Z,52.10
2023-01-06T01:31:11.223Z,43.47
2023-01-06T01:36:11.787Z,48.10
2023-01-06T01:41:05.993Z,44.67
2023-01-06T01:45:59.984Z,41.88
2023-01-06T01:50:54.701Z,45.00
2023-01-06T01:55:49.676Z,44.63
2023-01-06T02:00:44.938Z,56.95
2023-01-06T02:05:41.803Z,54.38
2023-01-06T02:10:35.273Z,48.97
2023-01-06T02:15:33.230Z,43.45
2023-01-06T02:20:30.734Z,41.17
2023-01-06T02:25:38.681Z,45.40
2023-01-06T02:31:06.222Z,39.80
2023-01-06T02:36:14.700Z,38.47
2023-01-06T02:41:34.413Z,48.83
2023-01-06T02:46:57.491Z,36.83
2023-01-06T02:52:03.691Z,35.03
2023-01-06T02:57:12.630Z,38.75
2023-01-06T03:02:08.087Z,41.45
2023-01-06T03:07:03.428Z,36.00
2023-01-06T03:11:58.092Z,36.50
2023-01-06T03:16:51.514Z,58.58
2023-01-06T03:21:45.605Z,33.72
2023-01-06T03:26:39.727Z,50.80
2023-01-06T03:32:05.991Z,32.35
2023-01-06T03:37:23.124Z,38.00
2023-01-06T03:43:04.797Z,36.67
2023-01-06T03:48:10.815Z,31.35
2023-01-06T03:53:19.817Z,29.30
2023-01-06T03:58:14.698Z,29.35
2023-01-06T04:03:14.492Z,32.03
2023-01-06T04:08:10.225Z,35.95
2023-01-06T04:13:06.222Z,34.85
2023-01-06T04:18:01.721Z,36.35
2023-01-06T04:22:58.935Z,39.53
2023-01-06T04:28:02.189Z,41.67
2023-01-06T04:32:55.609Z,36.30
2023-01-06T04:37:49.839Z,28.40
2023-01-06T04:43:06.893Z,30.58
2023-01-06T04:48:04.445Z,28.13
2023-01-06T04:52:58.108Z,28.17
2023-01-06T04:57:52.347Z,28.98
2023-01-06T05:02:46.503Z,27.98
2023-01-06T05:07:40.974Z,28.05
2023-01-06T05:12:35.028Z,32.85
2023-01-06T05:17:28.942Z,39.08
2023-01-06T05:22:22.447Z,29.52
2023-01-06T05:32:10.146Z,25.00
2023-01-06T05:37:04.209Z,22.88
2023-01-06T05:41:57.907Z,20.05
2023-01-06T05:46:51.380Z,19.85
2023-01-06T05:51:45.369Z,18.05
2023-01-06T05:56:39.454Z,16.75
2023-01-06T06:01:34.346Z,17.35
2023-01-06T06:06:30.280Z,16.73
2023-01-06T06:11:22.651Z,15.82
2023-01-06T06:16:17.163Z,17.55
2023-01-06T06:21:13.094Z,15.98
2023-01-06T06:26:07.412Z,17.00
2023-01-06T06:31:28.548Z,17.65
2023-01-06T06:36:23.108Z,15.35
2023-01-06T06:41:16.774Z,16.45
2023-01-06T06:46:11.262Z,16.10
2023-01-06T06:51:08.539Z,16.10
2023-01-06T06:56:03.056Z,16.77
2023-01-06T07:01:01.073Z,16.25
2023-01-06T07:05:55.286Z,15.93
2023-01-06T07:10:49.228Z,16.83
2023-01-06T07:15:43.528Z,16.42
2023-01-06T07:20:38.301Z,16.58
2023-01-06T07:25:32.577Z,16.15
2023-01-06T07:30:32.452Z,17.98
2023-01-06T07:35:26.136Z,18.15
2023-01-06T07:45:14.379Z,17.48
2023-01-06T07:50:09.393Z,17.85
2023-01-06T07:55:02.894Z,19.10
2023-01-06T07:59:57.476Z,18.77
2023-01-06T08:04:50.606Z,17.73
2023-01-06T08:09:44.645Z,18.63
2023-01-06T08:14:46.933Z,18.65
2023-01-06T08:19:40.697Z,18.17
2023-01-06T08:24:34.302Z,18.33
2023-01-06T08:29:27.557Z,19.02
2023-01-06T08:34:21.762Z,21.60
2023-01-06T08:39:16.162Z,18.35
2023-01-06T08:44:09.876Z,21.45
2023-01-06T08:49:03.988Z,19.75
2023-01-06T08:53:58.582Z,22.38
2023-01-06T08:58:58.625Z,24.92
2023-01-06T09:03:52.607Z,23.80
2023-01-06T09:08:46.731Z,25.42
2023-01-06T09:13:40.832Z,25.98
2023-01-06T09:28:21.618Z,26.33
2023-01-06T09:33:15.563Z,27.67
2023-01-06T09:38:09.416Z,28.13
2023-01-06T09:43:23.575Z,27.17
2023-01-06T09:48:21.587Z,28.13
2023-01-06T09:53:37.344Z,27.17
2023-01-06T09:59:07.427Z,24.70
2023-01-06T10:04:01.650Z,24.60
2023-01-06T10:09:15.994Z,22.50
2023-01-06T10:14:25.751Z,22.42
2023-01-06T10:19:45.163Z,22.30
2023-01-06T10:25:00.021Z,23.35
2023-01-06T10:29:56.341Z,22.75
2023-01-06T10:34:51.722Z,21.85
2023-01-06T10:39:49.895Z,22.70
2023-01-06T10:44:44.037Z,23.25
2023-01-06T10:49:37.880Z,24.13
2023-01-06T10:54:34.809Z,22.98
2023-01-06T10:59:28.359Z,22.60
2023-01-06T11:04:22.384Z,23.13
2023-01-06T11:09:34.024Z,22.48
2023-01-06T11:14:31.287Z,24.27
2023-01-06T11:19:42.262Z,22.20
2023-01-06T11:24:51.838Z,24.60
2023-01-06T11:29:46.041Z,23.83
2023-01-06T11:34:39.787Z,24.67
2023-01-06T11:39:36.247Z,24.75
2023-01-06T11:44:33.514Z,25.58
2023-01-06T11:49:49.791Z,24.35
2023-01-06T11:54:43.339Z,26.67
2023-01-06T12:00:02.746Z,25.23
2023-01-06T12:04:57.499Z,26.77
2023-01-06T12:09:52.017Z,27.30
2023-01-06T12:14:45.772Z,26.52
2023-01-06T12:20:00.429Z,27.65
2023-01-06T12:25:14.955Z,28.83
2023-01-06T12:30:25.790Z,31.40
2023-01-06T12:35:38.480Z,29.15
2023-01-06T12:40:37.731Z,27.52
2023-01-06T12:46:06.391Z,29.45
2023-01-06T12:51:06.864Z,30.50
2023-01-06T12:56:11.982Z,31.85
2023-01-06T13:01:16.918Z,35.72
2023-01-06T13:06:27.308Z,39.28
2023-01-06T13:12:08.624Z,44.75
2023-01-06T13:17:39.970Z,40.70
2023-01-06T13:23:03.758Z,44.83
2023-01-06T13:28:29.088Z,43.85
2023-01-06T13:33:30.961Z,48.63
2023-01-06T13:38:24.026Z,49.97
2023-01-06T13:43:35.597Z,48.35
2023-01-06T13:48:41.988Z,50.10
2023-01-06T13:53:40.102Z,48.33
2023-01-06T13:58:32.802Z,46.95
2023-01-06T14:03:27.063Z,45.97
2023-01-06T14:08:20.661Z,46.00
2023-01-06T14:13:19.799Z,44.17
2023-01-06T14:18:34.674Z,43.00
2023-01-06T14:23:29.553Z,43.88
2023-01-06T14:28:22.371Z,45.88
2023-01-06T14:33:38.001Z,43.63
2023-01-06T14:38:41.769Z,43.83
2023-01-06T14:43:42.649Z,44.30
2023-01-06T14:48:42.860Z,42.08
2023-01-06T14:53:47.376Z,39.33
2023-01-06T14:58:40.875Z,39.80
2023-01-06T15:03:34.902Z,42.35
2023-01-06T15:08:29.197Z,41.28
2023-01-06T15:13:30.093Z,40.15
2023-01-06T15:18:23.190Z,38.22
2023-01-06T15:23:18.591Z,39.60
2023-01-06T15:28:24.850Z,39.35
2023-01-06T15:33:19.497Z,38.80
2023-01-06T15:38:28.748Z,36.80
2023-01-06T15:43:28.214Z,38.20
2023-01-06T15:48:27.591Z,37.00
2023-01-06T15:53:25.717Z,37.55
2023-01-06T15:58:28.225Z,37.22
2023-01-06T16:03:22.930Z,38.90
2023-01-06T16:08:25.501Z,36.13
2023-01-06T16:13:31.415Z,41.13
2023-01-06T16:18:33.158Z,39.35
2023-01-06T16:23:34.341Z,43.70
2023-01-06T16:28:27.822Z,67.68
2023-01-06T16:38:48.407Z,45.53
2023-01-06T16:43:43.099Z,41.65
2023-01-06T16:48:37.878Z,39.13
2023-01-06T16:53:34.441Z,41.20
2023-01-06T16:58:33.320Z,36.92
2023-01-06T17:03:30.787Z,34.42
2023-01-06T17:08:51.189Z,37.22
2023-01-06T17:14:12.875Z,36.85
2023-01-06T17:19:28.023Z,36.78
2023-01-06T17:24:27.403Z,36.78
2023-01-06T17:29:21.178Z,41.45
2023-01-06T17:34:19.592Z,38.75
2023-01-06T17:39:37.749Z,38.35
2023-01-06T17:44:43.347Z,36.83
2023-01-06T17:49:37.621Z,38.10
2023-01-06T17:54:49.715Z,40.05
2023-01-06T17:59:43.571Z,37.97
2023-01-06T18:04:37.510Z,38.80
2023-01-06T18:09:31.691Z,40.80
2023-01-06T18:14:40.470Z,40.80
2023-01-06T18:19:35.794Z,41.60
2023-01-06T18:24:40.329Z,39.45
2023-01-06T18:29:36.978Z,42.53
2023-01-06T18:34:41.079Z,41.42
2023-01-06T18:39:43.920Z,44.97
2023-01-06T18:44:37.790Z,43.60
2023-01-06T18:54:24.829Z,41.05
2023-01-06T18:59:20.494Z,47.28
2023-01-06T19:04:16.476Z,49.80
2023-01-06T19:09:32.959Z,50.55
2023-01-06T19:14:26.136Z,47.95
2023-01-06T19:24:29.495Z,48.13
2023-01-06T19:29:28.710Z,46.47
2023-01-06T19:34:24.575Z,46.28
2023-01-06T19:39:41.394Z,47.95
2023-01-06T19:44:36.980Z,47.85
2023-01-06T19:49:40.129Z,47.15
2023-01-06T19:54:35.983Z,45.25
2023-01-06T19:59:32.395Z,43.63
2023-01-06T20:04:28.005Z,42.47
2023-01-06T20:09:24.445Z,45.55
2023-01-06T20:14:19.471Z,42.95
2023-01-06T20:19:13.199Z,42.75
2023-01-06T20:24:08.383Z,42.08
2023-01-06T20:29:04.197Z,43.70
2023-01-06T20:33:57.712Z,40.03
2023-01-06T20:38:50.276Z,42.60
2023-01-06T20:43:44.223Z,43.33
2023-01-06T20:48:37.745Z,45.20
2023-01-06T20:53:31.884Z,39.92
2023-01-06T20:58:25.055Z,41.90
2023-01-06T21:03:19.115Z,42.50
2023-01-06T21:08:13.409Z,45.92
2023-01-06T21:13:06.611Z,45.35
2023-01-06T21:18:01.002Z,40.47
2023-01-06T21:22:54.258Z,40.53
2023-01-06T21:27:48.152Z,41.50
2023-01-06T21:32:42.513Z,41.38
2023-01-06T21:37:36.439Z,39.90
2023-01-06T21:42:48.286Z,43.28
2023-01-06T21:47:41.977Z,44.30
2023-01-06T21:52:36.176Z,45.22
2023-01-06T21:57:30.003Z,43.65
2023-01-06T22:02:24.381Z,43.15
2023-01-06T22:07:18.609Z,43.28
2023-01-06T22:12:12.846Z,42.40
2023-01-06T22:17:06.046Z,43.53
2023-01-06T22:22:00.313Z,42.28
2023-01-06T22:26:54.547Z,43.58
2023-01-06T22:31:48.520Z,42.92
2023-01-06T22:36:42.536Z,42.38
2023-01-06T22:41:36.212Z,48.72
2023-01-06T22:46:30.328Z,44.83
2023-01-06T22:51:23.866Z,43.70
2023-01-06T22:56:17.126Z,42.63
2023-01-06T23:01:11.427Z,44.20
2023-01-06T23:06:13.498Z,45.78
2023-01-06T23:11:28.621Z,45.55
2023-01-06T23:16:23.466Z,43.05
2023-01-06T23:21:21.757Z,41.78
2023-01-06T23:26:18.353Z,42.08
2023-01-06T23:31:17.850Z,40.53
2023-01-06T23:36:13.000Z,41.53
2023-01-06T23:41:14.653Z,39.13
2023-01-06T23:46:11.304Z,39.72
2023-01-06T23:51:06.041Z,35.83
2023-01-06T23:56:05.393Z,33.78
